createdAt,value
2023-02-26T00:00:03.827Z,1.26
2023-02-26T00:01:06.489Z,1.20
2023-02-26T00:02:10.033Z,1.12
2023-02-26T00:03:13.320Z,1.29
2023-02-26T00:04:16.322Z,1.15
2023-02-26T00:05:19.424Z,1.38
2023-02-26T00:06:22.405Z,1.25
2023-02-26T00:07:25.875Z,1.12
2023-02-26T00:08:28.568Z,1.12
2023-02-26T00:09:32.173Z,1.32
2023-02-26T00:10:34.959Z,1.45
2023-02-26T00:11:38.080Z,1.24
2023-02-26T00:12:41.169Z,1.22
2023-02-26T00:13:44.162Z,1.42
2023-02-26T00:14:47.137Z,1.37
2023-02-26T00:15:50.006Z,1.32
2023-02-26T00:16:53.313Z,1.39
2023-02-26T00:17:56.986Z,1.49
2023-02-26T00:19:00.927Z,1.34
2023-02-26T00:20:03.843Z,1.27
2023-02-26T00:21:06.613Z,1.36
2023-02-26T00:22:09.575Z,1.58
2023-02-26T00:23:12.460Z,1.46
2023-02-26T00:24:15.149Z,1.49
2023-02-26T00:25:18.111Z,1.39
2023-02-26T00:26:20.993Z,1.30
2023-02-26T00:27:23.858Z,1.23
2023-02-26T00:28:27.375Z,1.45
2023-02-26T00:29:30.849Z,1.44
2023-02-26T00:30:34.156Z,1.63
2023-02-26T00:31:37.109Z,1.38
2023-02-26T00:32:40.346Z,1.55
2023-02-26T00:33:43.586Z,1.47
2023-02-26T00:34:46.849Z,1.28
2023-02-26T00:35:50.133Z,1.30
2023-02-26T00:36:53.026Z,1.55
2023-02-26T00:37:56.225Z,1.85
2023-02-26T00:38:59.725Z,1.41
2023-02-26T00:40:02.875Z,1.30
2023-02-26T00:41:06.019Z,1.31
2023-02-26T00:42:09.352Z,1.55
2023-02-26T00:43:12.442Z,1.51
2023-02-26T00:44:15.693Z,1.42
2023-02-26T00:45:18.775Z,1.44
2023-02-26T00:46:21.932Z,1.58
2023-02-26T00:47:25.242Z,1.89
2023-02-26T00:48:28.776Z,1.73
2023-02-26T00:49:32.481Z,1.53
2023-02-26T00:50:35.399Z,1.41
2023-02-26T00:51:38.474Z,1.51
2023-02-26T00:52:41.673Z,1.51
2023-02-26T00:53:44.755Z,1.39
2023-02-26T00:54:48.021Z,1.48
2023-02-26T00:55:51.111Z,1.67
2023-02-26T00:56:54.190Z,1.83
2023-02-26T00:57:57.187Z,2.30
2023-02-26T00:59:00.249Z,2.60
2023-02-26T01:00:03.572Z,2.38
2023-02-26T01:01:06.840Z,2.58
2023-02-26T01:02:09.797Z,2.95
2023-02-26T01:03:12.783Z,3.15
2023-02-26T01:04:15.735Z,2.47
2023-02-26T01:05:18.623Z,2.56
2023-02-26T01:06:21.733Z,2.65
2023-02-26T01:07:24.693Z,2.49
2023-02-26T01:08:27.658Z,2.67
2023-02-26T01:09:31.030Z,2.66
2023-02-26T01:10:34.538Z,2.68
2023-02-26T01:11:37.912Z,2.67
2023-02-26T01:12:41.037Z,2.81
2023-02-26T01:13:44.063Z,2.62
2023-02-26T01:14:46.844Z,2.50
2023-02-26T01:15:50.212Z,2.51
2023-02-26T01:16:53.207Z,2.60
2023-02-26T01:17:56.506Z,2.52
2023-02-26T01:18:59.927Z,2.15
2023-02-26T01:20:03.076Z,2.28
2023-02-26T01:21:06.658Z,2.39
2023-02-26T01:22:09.831Z,2.29
2023-02-26T01:23:12.900Z,2.16
2023-02-26T01:24:15.993Z,2.16
2023-02-26T01:25:19.269Z,2.22
2023-02-26T01:26:22.534Z,2.41
2023-02-26T01:27:26.122Z,2.35
2023-02-26T01:28:29.089Z,2.19
2023-02-26T01:29:32.222Z,2.59
2023-02-26T01:30:35.615Z,2.62
2023-02-26T01:31:39.365Z,2.27
2023-02-26T01:32:42.643Z,2.32
2023-02-26T01:33:45.671Z,2.59
2023-02-26T01:34:49.146Z,2.12
2023-02-26T01:35:52.333Z,2.42
2023-02-26T01:36:56.121Z,2.25
2023-02-26T01:37:59.302Z,2.01
2023-02-26T01:39:02.593Z,2.38
2023-02-26T01:40:05.799Z,2.15
2023-02-26T01:41:08.915Z,2.45
2023-02-26T01:42:12.454Z,2.40
2023-02-26T01:43:15.228Z,2.56
2023-02-26T01:44:18.397Z,2.50
2023-02-26T01:45:21.180Z,2.32
2023-02-26T01:46:24.160Z,2.38
2023-02-26T01:47:27.020Z,2.38
2023-02-26T01:48:29.692Z,2.32
2023-02-26T01:49:32.675Z,2.20
2023-02-26T01:50:35.952Z,1.93
2023-02-26T01:51:39.344Z,2.40
2023-02-26T01:52:42.849Z,2.28
2023-02-26T01:53:45.805Z,2.18
2023-02-26T01:54:49.231Z,1.91
2023-02-26T01:55:52.299Z,2.11
2023-02-26T01:56:55.448Z,2.22
2023-02-26T01:57:58.738Z,2.38
2023-02-26T01:59:01.821Z,2.65
2023-02-26T02:00:05.003Z,2.04
2023-02-26T02:01:08.175Z,1.98
2023-02-26T02:02:11.230Z,2.15
2023-02-26T02:03:14.577Z,2.24
2023-02-26T02:04:17.375Z,2.20
2023-02-26T02:05:20.710Z,2.52
2023-02-26T02:06:24.426Z,2.28
2023-02-26T02:07:27.686Z,2.40
2023-02-26T02:08:30.978Z,2.55
2023-02-26T02:09:34.138Z,2.28
2023-02-26T02:10:37.220Z,2.12
2023-02-26T02:11:40.216Z,2.23
2023-02-26T02:12:43.222Z,2.43
2023-02-26T02:13:46.146Z,2.55
2023-02-26T02:14:49.344Z,2.32
2023-02-26T02:15:52.723Z,2.48
2023-02-26T02:16:55.910Z,2.51
2023-02-26T02:17:59.310Z,2.63
2023-02-26T02:19:02.055Z,2.47
2023-02-26T02:20:05.453Z,2.47
2023-02-26T02:21:08.320Z,2.64
2023-02-26T02:22:11.299Z,2.43
2023-02-26T02:23:14.162Z,2.32
2023-02-26T02:24:16.953Z,2.52
2023-02-26T02:25:19.906Z,2.77
2023-02-26T02:26:22.912Z,2.32
2023-02-26T02:27:25.769Z,2.40
2023-02-26T02:28:28.793Z,2.68
2023-02-26T02:29:31.936Z,2.32
2023-02-26T02:30:34.935Z,2.64
2023-02-26T02:31:38.343Z,3.18
2023-02-26T02:32:41.482Z,2.64
2023-02-26T02:33:44.668Z,2.28
2023-02-26T02:34:48.000Z,2.70
2023-02-26T02:35:51.026Z,2.65
2023-02-26T02:36:53.896Z,2.57
2023-02-26T02:37:57.077Z,2.45
2023-02-26T02:39:00.155Z,2.75
2023-02-26T02:40:03.551Z,2.82
2023-02-26T02:41:06.656Z,2.64
2023-02-26T02:42:09.704Z,2.97
2023-02-26T02:43:12.677Z,3.31
2023-02-26T02:44:15.786Z,2.82
2023-02-26T02:45:19.074Z,2.71
2023-02-26T02:46:22.637Z,2.41
2023-02-26T02:47:25.711Z,2.62
2023-02-26T02:48:28.825Z,2.67
2023-02-26T02:49:31.761Z,2.48
2023-02-26T02:50:35.053Z,2.56
2023-02-26T02:51:38.146Z,2.69
2023-02-26T02:52:41.212Z,2.71
2023-02-26T02:53:44.492Z,2.55
2023-02-26T02:54:47.474Z,2.51
2023-02-26T02:55:50.894Z,2.57
2023-02-26T02:56:53.837Z,2.37
2023-02-26T02:57:56.714Z,2.39
2023-02-26T02:58:59.684Z,2.56
2023-02-26T03:00:02.792Z,2.64
2023-02-26T03:01:05.856Z,2.95
2023-02-26T03:02:08.622Z,2.73
2023-02-26T03:03:11.695Z,2.88
2023-02-26T03:04:14.476Z,2.57
2023-02-26T03:05:17.186Z,2.79
2023-02-26T03:06:20.016Z,2.72
2023-02-26T03:07:22.990Z,2.71
2023-02-26T03:08:26.238Z,2.55
2023-02-26T03:09:29.462Z,2.71
2023-02-26T03:10:32.853Z,2.74
2023-02-26T03:11:36.228Z,2.52
2023-02-26T03:12:39.721Z,2.46
2023-02-26T03:13:42.831Z,2.66
2023-02-26T03:14:45.773Z,2.43
2023-02-26T03:15:48.899Z,2.51
2023-02-26T03:16:52.424Z,2.39
2023-02-26T03:17:55.448Z,2.29
2023-02-26T03:18:58.395Z,2.13
2023-02-26T03:20:01.502Z,2.14
2023-02-26T03:21:04.563Z,2.07
2023-02-26T03:22:07.747Z,2.41
2023-02-26T03:23:10.840Z,2.68
2023-02-26T03:24:14.555Z,2.38
2023-02-26T03:25:17.516Z,2.22
2023-02-26T03:26:20.476Z,2.30
2023-02-26T03:27:23.779Z,2.28
2023-02-26T03:28:27.058Z,2.27
2023-02-26T03:29:30.275Z,2.16
2023-02-26T03:30:33.437Z,2.07
2023-02-26T03:31:36.875Z,2.28
2023-02-26T03:32:40.139Z,1.94
2023-02-26T03:33:43.463Z,2.26
2023-02-26T03:34:47.178Z,1.98
2023-02-26T03:35:50.540Z,2.07
2023-02-26T03:36:53.314Z,2.12
2023-02-26T03:37:56.606Z,2.14
2023-02-26T03:38:59.693Z,2.11
2023-02-26T03:40:02.655Z,2.02
2023-02-26T03:41:05.334Z,2.10
2023-02-26T03:42:08.126Z,2.17
2023-02-26T03:43:11.493Z,2.46
2023-02-26T03:44:14.677Z,2.22
2023-02-26T03:45:18.062Z,1.88
2023-02-26T03:46:21.494Z,2.07
2023-02-26T03:47:24.948Z,1.85
2023-02-26T03:48:28.746Z,1.85
2023-02-26T03:49:32.129Z,2.41
2023-02-26T03:50:35.294Z,2.25
2023-02-26T03:51:39.093Z,2.60
2023-02-26T03:52:42.278Z,2.18
2023-02-26T03:53:45.681Z,2.22
2023-02-26T03:54:48.956Z,2.53
2023-02-26T03:55:52.138Z,1.98
2023-02-26T03:56:54.920Z,2.07
2023-02-26T03:57:58.284Z,2.14
2023-02-26T03:59:01.670Z,2.45
2023-02-26T04:00:04.923Z,2.11
2023-02-26T04:01:08.451Z,2.44
2023-02-26T04:02:12.030Z,2.19
2023-02-26T04:03:15.559Z,2.65
2023-02-26T04:04:19.341Z,2.24
2023-02-26T04:05:22.709Z,2.51
2023-02-26T04:06:25.962Z,2.28
2023-02-26T04:07:28.790Z,2.13
2023-02-26T04:08:31.436Z,2.18
2023-02-26T04:09:34.327Z,2.10
2023-02-26T04:10:37.179Z,2.52
2023-02-26T04:11:40.064Z,2.39
2023-02-26T04:12:42.739Z,2.22
2023-02-26T04:13:45.616Z,1.96
2023-02-26T04:14:49.202Z,2.03
2023-02-26T04:15:52.181Z,1.74
2023-02-26T04:16:55.300Z,1.86
2023-02-26T04:17:58.344Z,2.24
2023-02-26T04:19:01.418Z,1.95
2023-02-26T04:20:04.712Z,2.34
2023-02-26T04:21:07.879Z,2.32
2023-02-26T04:22:10.878Z,2.48
2023-02-26T04:23:13.836Z,2.38
2023-02-26T04:24:16.909Z,2.12
2023-02-26T04:25:20.193Z,2.05
2023-02-26T04:26:23.573Z,2.42
2023-02-26T04:27:26.663Z,2.14
2023-02-26T04:28:29.538Z,2.13
2023-02-26T04:29:32.826Z,2.29
2023-02-26T04:30:35.855Z,2.00
2023-02-26T04:31:38.817Z,2.09
2023-02-26T04:32:41.959Z,2.32
2023-02-26T04:33:44.933Z,2.48
2023-02-26T04:34:48.036Z,2.34
2023-02-26T04:35:51.419Z,2.00
2023-02-26T04:36:54.589Z,2.01
2023-02-26T04:37:57.454Z,2.29
2023-02-26T04:39:00.629Z,2.82
2023-02-26T04:40:03.812Z,2.30
2023-02-26T04:41:06.989Z,2.20
2023-02-26T04:42:09.977Z,2.15
2023-02-26T04:43:13.064Z,2.07
2023-02-26T04:44:17.364Z,2.23
2023-02-26T04:45:20.240Z,2.31
2023-02-26T04:46:23.708Z,1.97
2023-02-26T04:47:26.940Z,2.04
2023-02-26T04:48:29.878Z,2.19
2023-02-26T04:49:32.764Z,2.03
2023-02-26T04:50:35.421Z,2.39
2023-02-26T04:51:38.293Z,2.78
2023-02-26T04:52:41.188Z,1.85
2023-02-26T04:53:44.212Z,2.02
2023-02-26T04:54:47.417Z,1.89
2023-02-26T04:55:52.335Z,1.92
2023-02-26T04:56:55.248Z,2.21
2023-02-26T04:57:58.258Z,1.98
2023-02-26T04:59:01.405Z,2.24
2023-02-26T05:00:04.568Z,1.98
2023-02-26T05:01:07.553Z,1.98
2023-02-26T05:02:10.730Z,2.10
2023-02-26T05:03:13.720Z,1.88
2023-02-26T05:04:16.723Z,2.08
2023-02-26T05:05:19.694Z,2.07
2023-02-26T05:06:22.861Z,2.03
2023-02-26T05:07:26.030Z,2.17
2023-02-26T05:08:29.003Z,1.90
2023-02-26T05:09:31.877Z,1.73
2023-02-26T05:10:34.965Z,2.37
2023-02-26T05:11:38.156Z,2.04
2023-02-26T05:12:41.505Z,2.14
2023-02-26T05:13:44.517Z,2.46
2023-02-26T05:14:47.707Z,1.92
2023-02-26T05:15:50.895Z,2.14
2023-02-26T05:16:54.083Z,2.10
2023-02-26T05:17:57.459Z,2.10
2023-02-26T05:19:02.454Z,1.97
2023-02-26T05:20:05.152Z,2.25
2023-02-26T05:21:08.155Z,2.48
2023-02-26T05:22:11.104Z,2.12
2023-02-26T05:23:13.966Z,2.15
2023-02-26T05:24:16.946Z,2.01
2023-02-26T05:25:20.128Z,2.35
2023-02-26T05:26:23.890Z,2.37
2023-02-26T05:27:27.003Z,2.48
2023-02-26T05:28:30.299Z,2.28
2023-02-26T05:29:33.372Z,2.26
2023-02-26T05:30:36.609Z,2.68
2023-02-26T05:31:40.162Z,2.68
2023-02-26T05:32:43.025Z,1.91
2023-02-26T05:33:46.197Z,2.37
2023-02-26T05:34:49.039Z,2.22
2023-02-26T05:35:51.939Z,2.45
2023-02-26T05:36:54.616Z,2.15
2023-02-26T05:37:57.530Z,2.22
2023-02-26T05:39:00.576Z,2.24
2023-02-26T05:40:03.811Z,2.23
2023-02-26T05:41:06.836Z,2.20
2023-02-26T05:42:09.810Z,2.26
2023-02-26T05:43:12.979Z,2.30
2023-02-26T05:44:16.177Z,2.58
2023-02-26T05:45:19.256Z,2.42
2023-02-26T05:46:22.407Z,2.18
2023-02-26T05:47:25.858Z,2.32
2023-02-26T05:48:29.003Z,2.49
2023-02-26T05:49:32.592Z,2.87
2023-02-26T05:50:35.674Z,2.36
2023-02-26T05:51:38.754Z,2.22
2023-02-26T05:52:41.724Z,2.09
2023-02-26T05:53:44.797Z,1.94
2023-02-26T05:54:48.292Z,2.07
2023-02-26T05:55:51.165Z,2.33
2023-02-26T05:56:54.146Z,2.19
2023-02-26T05:57:57.141Z,2.16
2023-02-26T05:59:00.096Z,2.09
2023-02-26T06:00:03.496Z,2.05
2023-02-26T06:01:06.567Z,2.02
2023-02-26T06:02:09.668Z,2.11
2023-02-26T06:03:12.577Z,2.08
2023-02-26T06:04:15.718Z,2.12
2023-02-26T06:05:18.574Z,2.48
2023-02-26T06:06:22.553Z,2.37
2023-02-26T06:07:25.544Z,2.35
2023-02-26T06:08:28.390Z,2.28
2023-02-26T06:09:31.397Z,2.20
2023-02-26T06:10:34.508Z,2.48
2023-02-26T06:11:37.674Z,2.32
2023-02-26T06:12:40.744Z,2.23
2023-02-26T06:13:43.721Z,2.34
2023-02-26T06:14:46.696Z,2.35
2023-02-26T06:15:49.679Z,2.03
2023-02-26T06:16:52.356Z,2.13
2023-02-26T06:17:55.046Z,2.32
2023-02-26T06:18:57.591Z,2.68
2023-02-26T06:20:00.355Z,2.47
2023-02-26T06:21:03.249Z,2.23
2023-02-26T06:22:06.116Z,2.15
2023-02-26T06:23:08.886Z,2.33
2023-02-26T06:24:11.657Z,2.37
2023-02-26T06:25:14.754Z,2.12
2023-02-26T06:26:18.014Z,2.53
2023-02-26T06:27:20.877Z,2.35
2023-02-26T06:28:24.077Z,2.55
2023-02-26T06:29:27.245Z,2.30
2023-02-26T06:30:30.267Z,2.34
2023-02-26T06:31:33.592Z,2.22
2023-02-26T06:32:36.591Z,2.34
2023-02-26T06:33:39.668Z,2.42
2023-02-26T06:34:42.552Z,2.48
2023-02-26T06:35:45.315Z,2.47
2023-02-26T06:36:48.408Z,2.65
2023-02-26T06:37:51.515Z,2.61
2023-02-26T06:38:54.576Z,2.27
2023-02-26T06:39:57.456Z,2.78
2023-02-26T06:41:00.549Z,2.68
2023-02-26T06:42:03.586Z,3.30
2023-02-26T06:43:06.676Z,3.12
2023-02-26T06:44:09.650Z,2.58
2023-02-26T06:45:12.632Z,2.65
2023-02-26T06:46:15.751Z,3.07
2023-02-26T06:47:19.211Z,2.54
2023-02-26T06:48:22.174Z,2.66
2023-02-26T06:49:25.054Z,2.40
2023-02-26T06:50:28.025Z,2.76
2023-02-26T06:51:31.100Z,2.46
2023-02-26T06:52:34.393Z,2.29
2023-02-26T06:53:37.268Z,2.63
2023-02-26T06:54:40.260Z,3.12
2023-02-26T06:55:43.343Z,3.17
2023-02-26T06:56:46.480Z,2.75
2023-02-26T06:57:49.708Z,2.81
2023-02-26T06:58:52.756Z,2.88
2023-02-26T06:59:55.706Z,2.88
2023-02-26T07:00:58.845Z,3.09
2023-02-26T07:02:01.672Z,3.25
2023-02-26T07:03:04.795Z,2.91
2023-02-26T07:04:07.542Z,2.93
2023-02-26T07:05:10.660Z,3.07
2023-02-26T07:06:26.599Z,3.08
2023-02-26T07:07:17.856Z,3.25
2023-02-26T07:08:20.583Z,3.02
2023-02-26T07:09:23.526Z,2.79
2023-02-26T07:10:26.357Z,3.06
2023-02-26T07:11:29.425Z,3.02
2023-02-26T07:12:32.407Z,2.91
2023-02-26T07:13:35.770Z,2.92
2023-02-26T07:14:39.064Z,2.68
2023-02-26T07:15:43.254Z,2.46
2023-02-26T07:16:46.881Z,3.00
2023-02-26T07:17:49.841Z,2.58
2023-02-26T07:18:53.026Z,2.90
2023-02-26T07:19:55.896Z,2.82
2023-02-26T07:20:58.867Z,2.87
2023-02-26T07:22:01.645Z,2.94
2023-02-26T07:23:04.728Z,2.80
2023-02-26T07:24:08.108Z,2.64
2023-02-26T07:25:11.094Z,2.89
2023-02-26T07:26:14.065Z,2.98
2023-02-26T07:27:17.036Z,3.25
2023-02-26T07:28:20.116Z,3.42
2023-02-26T07:29:23.607Z,2.77
2023-02-26T07:30:26.616Z,2.86
2023-02-26T07:31:29.825Z,3.05
2023-02-26T07:32:33.327Z,3.81
2023-02-26T07:33:36.438Z,3.43
2023-02-26T07:34:39.520Z,3.10
2023-02-26T07:35:42.617Z,2.73
2023-02-26T07:36:45.765Z,2.47
2023-02-26T07:37:48.744Z,2.88
2023-02-26T07:38:51.732Z,2.96
2023-02-26T07:39:54.899Z,2.72
2023-02-26T07:40:57.919Z,2.89
2023-02-26T07:42:00.755Z,3.27
2023-02-26T07:43:03.631Z,2.99
2023-02-26T07:44:06.500Z,3.21
2023-02-26T07:45:09.999Z,2.82
2023-02-26T07:46:12.811Z,2.65
2023-02-26T07:47:15.873Z,3.48
2023-02-26T07:48:19.029Z,2.98
2023-02-26T07:49:21.711Z,2.98
2023-02-26T07:50:24.473Z,2.85
2023-02-26T07:51:27.405Z,3.17
2023-02-26T07:52:30.116Z,3.15
2023-02-26T07:53:32.989Z,2.84
2023-02-26T07:54:35.705Z,2.92
2023-02-26T07:55:38.753Z,2.80
2023-02-26T07:56:41.521Z,3.01
2023-02-26T07:57:44.490Z,2.89
2023-02-26T07:58:47.487Z,2.91
2023-02-26T07:59:50.346Z,2.93
2023-02-26T08:00:53.654Z,2.77
2023-02-26T08:01:56.592Z,3.12
2023-02-26T08:02:59.590Z,2.75
2023-02-26T08:04:02.678Z,3.08
2023-02-26T08:05:05.546Z,2.90
2023-02-26T08:06:08.628Z,2.91
2023-02-26T08:07:11.181Z,3.06
2023-02-26T08:08:13.913Z,3.02
2023-02-26T08:09:16.933Z,3.21
2023-02-26T08:10:20.124Z,3.50
2023-02-26T08:11:23.293Z,3.22
2023-02-26T08:12:26.167Z,3.05
2023-02-26T08:13:29.315Z,3.04
2023-02-26T08:14:32.528Z,3.17
2023-02-26T08:15:35.774Z,3.38
2023-02-26T08:16:39.088Z,3.08
2023-02-26T08:17:42.136Z,3.35
2023-02-26T08:18:44.948Z,3.35
2023-02-26T08:19:47.814Z,3.03
2023-02-26T08:20:50.701Z,3.48
2023-02-26T08:21:53.562Z,3.58
2023-02-26T08:22:56.547Z,3.53
2023-02-26T08:23:59.424Z,3.64
2023-02-26T08:25:02.611Z,3.87
2023-02-26T08:26:05.785Z,3.50
2023-02-26T08:27:08.463Z,3.45
2023-02-26T08:28:11.227Z,3.36
2023-02-26T08:29:14.103Z,3.53
2023-02-26T08:30:17.266Z,3.33
2023-02-26T08:31:20.469Z,3.75
2023-02-26T08:32:23.882Z,4.03
2023-02-26T08:33:26.636Z,3.59
2023-02-26T08:34:29.900Z,3.70
2023-02-26T08:35:33.087Z,3.02
2023-02-26T08:36:36.187Z,3.71
2023-02-26T08:37:39.450Z,3.48
2023-02-26T08:38:42.119Z,3.47
2023-02-26T08:39:44.899Z,3.76
2023-02-26T08:40:47.560Z,3.92
2023-02-26T08:41:50.544Z,4.74
2023-02-26T08:42:53.615Z,4.66
2023-02-26T08:43:56.312Z,3.90
2023-02-26T08:44:59.369Z,3.85
2023-02-26T08:46:02.444Z,3.48
2023-02-26T08:47:05.460Z,4.01
2023-02-26T08:48:10.753Z,3.62
2023-02-26T08:49:13.329Z,3.77
2023-02-26T08:50:16.200Z,3.82
2023-02-26T08:51:19.177Z,4.06
2023-02-26T08:52:22.282Z,3.81
2023-02-26T08:53:25.444Z,3.36
2023-02-26T08:54:28.619Z,3.48
2023-02-26T08:55:31.610Z,3.82
2023-02-26T08:56:34.594Z,3.74
2023-02-26T08:57:37.586Z,3.78
2023-02-26T08:58:40.550Z,3.69
2023-02-26T08:59:43.632Z,4.18
2023-02-26T09:00:46.505Z,4.05
2023-02-26T09:01:49.435Z,3.62
2023-02-26T09:02:52.603Z,3.40
2023-02-26T09:03:55.643Z,3.68
2023-02-26T09:04:58.314Z,3.90
2023-02-26T09:06:01.280Z,3.75
2023-02-26T09:07:04.370Z,3.93
2023-02-26T09:08:07.124Z,3.63
2023-02-26T09:09:10.237Z,3.47
2023-02-26T09:10:13.079Z,3.44
2023-02-26T09:11:15.953Z,3.57
2023-02-26T09:12:19.139Z,4.04
2023-02-26T09:13:21.927Z,3.89
2023-02-26T09:14:24.990Z,3.62
2023-02-26T09:15:28.016Z,3.78
2023-02-26T09:16:30.816Z,3.67
2023-02-26T09:17:33.618Z,3.91
2023-02-26T09:18:36.304Z,3.79
2023-02-26T09:19:39.049Z,3.70
2023-02-26T09:20:41.731Z,4.21
2023-02-26T09:21:44.359Z,3.88
2023-02-26T09:22:47.193Z,3.73
2023-02-26T09:23:50.257Z,3.66
2023-02-26T09:24:53.684Z,4.08
2023-02-26T09:25:56.513Z,3.66
2023-02-26T09:26:59.485Z,4.26
2023-02-26T09:28:02.527Z,4.02
2023-02-26T09:29:05.436Z,4.13
2023-02-26T09:30:08.924Z,4.41
2023-02-26T09:31:11.947Z,4.08
2023-02-26T09:32:14.978Z,4.00
2023-02-26T09:33:18.155Z,4.07
2023-02-26T09:34:21.443Z,3.92
2023-02-26T09:35:24.632Z,4.31
2023-02-26T09:36:28.026Z,4.35
2023-02-26T09:37:31.508Z,4.08
2023-02-26T09:38:34.792Z,3.98
2023-02-26T09:39:37.584Z,4.15
2023-02-26T09:40:40.651Z,3.80
2023-02-26T09:41:43.541Z,3.95
2023-02-26T09:42:46.505Z,4.13
2023-02-26T09:43:49.780Z,4.18
2023-02-26T09:44:52.951Z,4.29
2023-02-26T09:45:56.460Z,4.01
2023-02-26T09:46:59.414Z,3.99
2023-02-26T09:48:02.293Z,4.12
2023-02-26T09:49:05.173Z,4.55
2023-02-26T09:50:08.151Z,3.55
2023-02-26T09:51:11.124Z,4.02
2023-02-26T09:52:14.205Z,4.30
2023-02-26T09:53:16.987Z,4.06
2023-02-26T09:54:19.965Z,3.45
2023-02-26T09:55:22.735Z,3.59
2023-02-26T09:56:26.112Z,3.71
2023-02-26T09:57:28.995Z,3.71
2023-02-26T09:58:31.973Z,3.89
2023-02-26T09:59:34.864Z,3.56
2023-02-26T10:00:37.718Z,3.23
2023-02-26T10:01:40.632Z,4.00
2023-02-26T10:02:43.394Z,3.61
2023-02-26T10:03:46.175Z,3.54
2023-02-26T10:04:48.914Z,3.51
2023-02-26T10:05:51.779Z,3.72
2023-02-26T10:06:54.757Z,3.77
2023-02-26T10:07:57.429Z,4.02
2023-02-26T10:09:00.403Z,3.94
2023-02-26T10:10:03.382Z,3.42
2023-02-26T10:11:06.278Z,3.06
2023-02-26T10:12:09.354Z,3.14
2023-02-26T10:13:12.211Z,3.09
2023-02-26T10:14:14.982Z,2.75
2023-02-26T10:15:18.186Z,2.90
2023-02-26T10:16:21.068Z,2.92
2023-02-26T10:17:24.492Z,3.22
2023-02-26T10:18:27.524Z,2.81
2023-02-26T10:19:30.387Z,2.90
2023-02-26T10:20:33.642Z,2.45
2023-02-26T10:21:36.541Z,2.34
2023-02-26T10:22:39.739Z,2.75
2023-02-26T10:23:44.003Z,2.55
2023-02-26T10:24:47.217Z,2.40
2023-02-26T10:25:50.498Z,2.45
2023-02-26T10:26:53.497Z,2.44
2023-02-26T10:27:56.469Z,2.23
2023-02-26T10:28:59.453Z,2.40
2023-02-26T10:30:02.339Z,2.44
2023-02-26T10:31:05.643Z,2.18
2023-02-26T10:32:08.690Z,2.34
2023-02-26T10:33:11.853Z,2.23
2023-02-26T10:34:14.856Z,2.25
2023-02-26T10:35:17.827Z,2.35
2023-02-26T10:36:20.770Z,2.36
2023-02-26T10:37:23.758Z,2.37
2023-02-26T10:38:26.829Z,2.48
2023-02-26T10:39:29.920Z,2.17
2023-02-26T10:40:33.090Z,2.33
2023-02-26T10:41:35.864Z,2.42
2023-02-26T10:42:38.760Z,2.35
2023-02-26T10:43:41.533Z,2.37
2023-02-26T10:44:44.284Z,2.09
2023-02-26T10:45:46.887Z,2.10
2023-02-26T10:46:49.720Z,2.37
2023-02-26T10:47:52.392Z,2.35
2023-02-26T10:48:55.176Z,2.14
2023-02-26T10:49:57.854Z,2.25
2023-02-26T10:51:00.872Z,2.46
2023-02-26T10:52:03.600Z,2.32
2023-02-26T10:53:06.875Z,2.57
2023-02-26T10:54:09.541Z,2.43
2023-02-26T10:55:12.311Z,2.58
2023-02-26T10:56:15.392Z,2.36
2023-02-26T10:57:18.901Z,2.68
2023-02-26T10:58:30.675Z,1.92
2023-02-26T10:59:33.449Z,1.98
2023-02-26T11:00:36.338Z,2.14
2023-02-26T11:01:39.262Z,2.12
2023-02-26T11:02:42.207Z,2.27
2023-02-26T11:03:45.035Z,2.15
2023-02-26T11:04:53.885Z,2.03
2023-02-26T11:05:52.332Z,2.40
2023-02-26T11:06:55.353Z,2.35
2023-02-26T11:07:58.387Z,2.12
2023-02-26T11:09:01.314Z,2.20
2023-02-26T11:10:04.157Z,2.70
2023-02-26T11:11:07.210Z,1.90
2023-02-26T11:12:10.021Z,2.11
2023-02-26T11:13:13.060Z,2.04
2023-02-26T11:14:16.282Z,1.95
2023-02-26T11:15:19.014Z,2.13
2023-02-26T11:16:21.986Z,2.04
2023-02-26T11:17:25.173Z,2.32
2023-02-26T11:18:28.168Z,2.07
2023-02-26T11:19:31.246Z,2.26
2023-02-26T11:20:34.010Z,2.39
2023-02-26T11:21:36.896Z,2.32
2023-02-26T11:22:39.757Z,2.35
2023-02-26T11:23:42.734Z,2.55
2023-02-26T11:24:45.720Z,2.02
2023-02-26T11:25:48.671Z,2.11
2023-02-26T11:26:51.559Z,2.26
2023-02-26T11:27:54.608Z,2.20
2023-02-26T11:28:57.417Z,2.15
2023-02-26T11:30:00.418Z,2.00
2023-02-26T11:31:03.139Z,2.13
2023-02-26T11:32:05.994Z,2.38
2023-02-26T11:33:08.617Z,2.05
2023-02-26T11:34:11.330Z,2.30
2023-02-26T11:35:13.944Z,2.53
2023-02-26T11:36:16.511Z,2.50
2023-02-26T11:37:19.180Z,2.37
2023-02-26T11:38:22.488Z,2.12
2023-02-26T11:39:25.250Z,2.69
2023-02-26T11:40:28.221Z,2.14
2023-02-26T11:41:30.985Z,2.49
2023-02-26T11:42:34.676Z,2.77
2023-02-26T11:43:37.759Z,2.45
2023-02-26T11:44:40.746Z,2.61
2023-02-26T11:45:43.716Z,2.10
2023-02-26T11:46:46.908Z,2.38
2023-02-26T11:47:49.784Z,2.32
2023-02-26T11:48:52.793Z,2.64
2023-02-26T11:49:55.623Z,2.58
2023-02-26T11:50:58.728Z,2.76
2023-02-26T11:52:01.784Z,2.46
2023-02-26T11:53:04.758Z,2.41
2023-02-26T11:54:07.665Z,2.58
2023-02-26T11:55:10.396Z,2.58
2023-02-26T11:56:13.487Z,2.78
2023-02-26T11:57:16.455Z,2.78
2023-02-26T11:58:19.448Z,2.36
2023-02-26T11:59:22.207Z,2.38
2023-02-26T12:00:24.984Z,2.71
2023-02-26T12:01:28.196Z,2.40
2023-02-26T12:02:31.373Z,2.64
2023-02-26T12:03:34.527Z,2.60
2023-02-26T12:04:37.394Z,2.29
2023-02-26T12:05:40.372Z,2.57
2023-02-26T12:06:43.087Z,2.42
2023-02-26T12:07:45.609Z,2.61
2023-02-26T12:08:48.820Z,2.45
2023-02-26T12:09:51.572Z,2.36
2023-02-26T12:10:54.512Z,2.46
2023-02-26T12:11:57.319Z,2.56
2023-02-26T12:13:00.515Z,2.88
2023-02-26T12:14:03.059Z,2.45
2023-02-26T12:17:35.755Z,2.44
2023-02-26T12:18:38.641Z,3.23
2023-02-26T12:19:41.505Z,2.92
2023-02-26T12:20:44.374Z,2.05
2023-02-26T12:21:47.291Z,2.60
2023-02-26T12:22:50.122Z,2.84
2023-02-26T12:23:54.741Z,3.20
2023-02-26T12:24:57.610Z,3.29
2023-02-26T12:26:00.283Z,2.88
2023-02-26T12:27:03.258Z,3.31
2023-02-26T12:28:05.938Z,2.84
2023-02-26T12:29:08.608Z,2.79
2023-02-26T12:30:11.504Z,2.50
2023-02-26T12:31:14.625Z,2.85
2023-02-26T12:32:17.650Z,3.15
2023-02-26T12:33:20.371Z,3.22
2023-02-26T12:34:23.182Z,2.55
2023-02-26T12:35:26.057Z,3.36
2023-02-26T12:36:36.340Z,2.94
2023-02-26T12:37:33.477Z,2.85
2023-02-26T12:38:36.241Z,3.10
2023-02-26T12:39:39.020Z,2.82
2023-02-26T12:40:41.875Z,3.05
2023-02-26T12:41:44.752Z,2.77
2023-02-26T12:42:48.159Z,3.11
2023-02-26T12:43:51.246Z,3.10
2023-02-26T12:44:54.310Z,3.11
2023-02-26T12:45:57.494Z,3.32
2023-02-26T12:47:00.855Z,3.09
2023-02-26T12:48:03.800Z,3.01
2023-02-26T12:49:07.047Z,2.79
2023-02-26T12:50:10.076Z,2.77
2023-02-26T12:51:13.074Z,3.41
2023-02-26T12:52:16.173Z,2.99
2023-02-26T12:53:19.258Z,2.82
2023-02-26T12:54:22.328Z,2.96
2023-02-26T12:55:25.293Z,2.75
2023-02-26T12:56:28.489Z,3.00
2023-02-26T12:57:31.676Z,2.77
2023-02-26T12:58:34.781Z,3.03
2023-02-26T12:59:37.721Z,2.75
2023-02-26T13:00:40.764Z,3.12
2023-02-26T13:01:59.714Z,2.77
2023-02-26T13:02:48.999Z,2.67
2023-02-26T13:03:52.674Z,3.05
2023-02-26T13:04:56.604Z,2.48
2023-02-26T13:05:59.565Z,2.49
2023-02-26T13:07:02.547Z,2.23
2023-02-26T13:08:06.156Z,2.46
2023-02-26T13:09:09.224Z,2.42
2023-02-26T13:10:12.289Z,2.60
2023-02-26T13:11:15.392Z,2.30
2023-02-26T13:12:19.390Z,2.49
2023-02-26T13:13:22.285Z,2.29
2023-02-26T13:14:25.245Z,2.33
2023-02-26T13:15:28.481Z,2.45
2023-02-26T13:16:31.445Z,2.25
2023-02-26T13:17:34.260Z,2.65
2023-02-26T13:18:36.924Z,2.72
2023-02-26T13:19:39.702Z,3.16
2023-02-26T13:20:42.473Z,2.49
2023-02-26T13:21:45.141Z,2.42
2023-02-26T13:22:48.158Z,2.51
2023-02-26T13:23:50.797Z,2.84
2023-02-26T13:24:53.565Z,2.53
2023-02-26T13:25:56.484Z,2.78
2023-02-26T13:26:59.522Z,2.88
2023-02-26T13:28:02.397Z,2.76
2023-02-26T13:29:05.160Z,3.20
2023-02-26T13:30:07.826Z,3.56
2023-02-26T13:31:11.382Z,3.74
2023-02-26T13:32:14.352Z,3.33
2023-02-26T13:33:17.323Z,3.62
2023-02-26T13:34:20.169Z,4.03
2023-02-26T13:35:23.135Z,3.99
2023-02-26T13:36:26.552Z,4.48
2023-02-26T13:37:29.081Z,4.72
2023-02-26T13:38:32.080Z,4.57
2023-02-26T13:39:35.143Z,4.36
2023-02-26T13:40:38.261Z,4.38
2023-02-26T13:41:41.088Z,4.32
2023-02-26T13:42:44.065Z,4.83
2023-02-26T13:43:47.248Z,4.26
2023-02-26T13:44:49.962Z,4.15
2023-02-26T13:45:52.206Z,4.08
2023-02-26T13:46:54.524Z,4.35
2023-02-26T13:47:57.062Z,4.26
2023-02-26T13:48:59.283Z,3.88
2023-02-26T13:50:01.516Z,3.78
2023-02-26T13:51:03.765Z,4.25
2023-02-26T13:52:06.128Z,4.47
2023-02-26T13:53:08.597Z,3.65
2023-02-26T13:54:11.083Z,3.77
2023-02-26T13:55:13.281Z,3.12
2023-02-26T13:56:15.742Z,3.86
2023-02-26T13:57:17.998Z,3.88
2023-02-26T13:58:20.215Z,3.69
2023-02-26T13:59:22.405Z,4.16
2023-02-26T14:00:24.609Z,4.48
2023-02-26T14:01:27.272Z,4.10